Aérodrome :
LOGIN :

S'inscrire | Disclaimer

   EN    FR    IT 

 










Légende :    VFR   VFR Marginal   IFR   IFR Intensif   IFR Très Intensif
Visi : 
Plafond : 
>= 8 km
>= 3000ft
5 à 8 km
1000 à 3000 ft
1500m à 5 km
500 à 1000 ft
800 à 1500m
200 à 500 ft
< 800m
< 200 ft
Symboles :   Orages  Brouillard  Fortes neiges  Fortes précipitations  Vent > 20 kt
SIGMETs :   Divers  Orages  Givrage  Turbulence  Onde Orograph.  Cendres Volcan.






- Altitude de l'aérodrome : 479 ft
- Code IATA : DOL


LFRG - Deauville

DERNIER METAR :
  • 161800Z AUTO 28009KT 9999 BKN019 OVC024 07/06 Q1018 TEMPO BKN010

METARs EXPIRÉS :
  • 161730Z AUTO 27010KT 9999 BKN005 BKN009 OVC018 07/07 Q1018 TEMPO BKN010
  • 161700Z AUTO 28010KT 9999 OVC005 07/07 Q1018 TEMPO 2000 SNRA BKN010
  • 161630Z AUTO 26011KT 9999 OVC005 07/07 Q1018 TEMPO 2000 SNRA BKN010 BECMG 32010KT
  • 161600Z AUTO 26010KT 9999 OVC005 07/07 Q1018 TEMPO 2000 SNRA
  • 161530Z AUTO 24010KT 9999 OVC004 06/06 Q1018 TEMPO 2000 SNRA

TAF TAF LFRG
Valide du 16 à 15h jusqu'au 17 à 00h UTC


161400Z 1615/1624 22015G25KT 9999 OVC012
TEMPO 1615/1618 3000 RADZ BKN005
PROB30
TEMPO 1615/1618 2000 SNRA BKN003
BECMG 1616/1618 26010KT
BECMG 1618/1620 32010KT BKN020
PROB30
TEMPO 1618/1624 BKN010
ATIS : +33 2 31 65 65 36



MET'MAP, la Météo Aéronautique d'un coup d'oeil ! - Copyright ORBIFLY Décembre 2007 - Disclaimer

ORBIFLY MET'MAP TEAM :

Programmation & Développement : Alexandra Zaïnal
Sur une idée originale de : Baudouin d'Aumeries
Assistance à la programmation : Marc-Olivier Méhu
Soutien technique & logistique : Manuel Goepfert

Contact : metmap@orbifly.com




SOURCES & CREDITS :

   NOAA